IFL877 TJBQ-KMIA
Flight info
| Callsign | IFL877 |
|---|---|
| Flight time | 2h 11m |
| Altitude | 32000 |
| Route | BQN DCT HARBG Y330 FODED Y308 MADIZ VIICE2 |
| Aircraft | R722/M-SDFGRWY/S |
Departure
| Time | 2026-04-26 19:30 |
|---|---|
| Airport | Rafael Hernández International Airport (TJBQ) |
Arrival
| Time | 2026-04-26 21:42 |
|---|---|
| Airport | Miami International Airport (KMIA) |
| Time | Latitude | Longitude | Altitude | Speed | Heading |
|---|---|---|---|---|---|
| 2026-04-26 19:24 | 18.49432 | -67.13515 | 236 ft | 0 kts | 72° |
| 2026-04-26 19:25 | 18.49451 | -67.13448 | 234 ft | 14 kts | 73° |
| 2026-04-26 19:25 | 18.49485 | -67.13331 | 231 ft | 18 kts | 73° |
| 2026-04-26 19:26 | 18.49522 | -67.13200 | 231 ft | 19 kts | 71° |
| 2026-04-26 19:26 | 18.49567 | -67.13060 | 231 ft | 21 kts | 72° |
| 2026-04-26 19:26 | 18.49614 | -67.12903 | 227 ft | 23 kts | 72° |
| 2026-04-26 19:26 | 18.49667 | -67.12735 | 226 ft | 25 kts | 71° |
| 2026-04-26 19:27 | 18.49728 | -67.12554 | 223 ft | 28 kts | 70° |
| 2026-04-26 19:27 | 18.49790 | -67.12361 | 219 ft | 28 kts | 73° |
| 2026-04-26 19:27 | 18.49824 | -67.12198 | 223 ft | 13 kts | 113° |
| 2026-04-26 19:27 | 18.49755 | -67.12132 | 218 ft | 14 kts | 121° |
| 2026-04-26 19:28 | 18.49761 | -67.11986 | 218 ft | 25 kts | 69° |
| 2026-04-26 19:28 | 18.49822 | -67.11807 | 215 ft | 28 kts | 70° |
| 2026-04-26 19:28 | 18.49896 | -67.11595 | 216 ft | 32 kts | 72° |
| 2026-04-26 19:28 | 18.49934 | -67.11393 | 207 ft | 13 kts | 95° |
| 2026-04-26 19:29 | 18.49957 | -67.11357 | 211 ft | 3 kts | 330° |
| 2026-04-26 19:29 | 18.49959 | -67.11362 | 210 ft | 0 kts | 259° |
| 2026-04-26 19:29 | 18.49933 | -67.11464 | 209 ft | 44 kts | 252° |
| 2026-04-26 19:29 | 18.49765 | -67.12012 | 217 ft | 110 kts | 252° |
| 2026-04-26 19:30 | 18.49490 | -67.12931 | 318 ft | 146 kts | 253° |
| 2026-04-26 19:30 | 18.49175 | -67.14004 | 726 ft | 158 kts | 254° |
| 2026-04-26 19:30 | 18.48829 | -67.15133 | 1242 ft | 164 kts | 252° |
| 2026-04-26 19:30 | 18.48596 | -67.15866 | 1749 ft | 155 kts | 250° |
| 2026-04-26 19:31 | 18.48315 | -67.17547 | 1830 ft | 196 kts | 272° |
| 2026-04-26 19:31 | 18.48458 | -67.18968 | 2577 ft | 204 kts | 276° |
| 2026-04-26 19:31 | 18.48915 | -67.20532 | 2722 ft | 242 kts | 297° |
| 2026-04-26 19:31 | 18.50035 | -67.21957 | 2901 ft | 265 kts | 319° |
| 2026-04-26 19:32 | 18.51679 | -67.22941 | 3165 ft | 276 kts | 340° |
| 2026-04-26 19:32 | 18.53559 | -67.23303 | 3677 ft | 276 kts | 355° |
| 2026-04-26 19:32 | 18.55484 | -67.23432 | 4049 ft | 280 kts | 356° |
| 2026-04-26 19:32 | 18.57435 | -67.23572 | 4486 ft | 282 kts | 356° |
| 2026-04-26 19:33 | 18.59406 | -67.23726 | 4815 ft | 285 kts | 356° |
| 2026-04-26 19:33 | 18.61391 | -67.23885 | 5142 ft | 290 kts | 355° |
| 2026-04-26 19:33 | 18.63403 | -67.24046 | 6048 ft | 287 kts | 355° |
| 2026-04-26 19:33 | 18.65402 | -67.24211 | 6968 ft | 289 kts | 354° |
| 2026-04-26 19:34 | 18.67422 | -67.24379 | 7805 ft | 293 kts | 354° |
| 2026-04-26 19:34 | 18.69465 | -67.24551 | 8626 ft | 296 kts | 354° |
| 2026-04-26 19:34 | 18.71525 | -67.24724 | 9448 ft | 298 kts | 354° |
| 2026-04-26 19:34 | 18.73597 | -67.24898 | 10162 ft | 296 kts | 353° |
| 2026-04-26 19:35 | 18.75698 | -67.25106 | 10464 ft | 311 kts | 349° |
| 2026-04-26 19:35 | 18.77748 | -67.25677 | 11646 ft | 302 kts | 336° |
| 2026-04-26 19:35 | 18.79637 | -67.26665 | 12578 ft | 305 kts | 324° |
| 2026-04-26 19:35 | 18.81320 | -67.28048 | 13306 ft | 315 kts | 313° |
| 2026-04-26 19:36 | 18.82818 | -67.29857 | 13638 ft | 331 kts | 300° |
| 2026-04-26 19:36 | 18.83218 | -67.30518 | 14003 ft | 328 kts | 297° |
| 2026-04-26 19:36 | 18.84738 | -67.34194 | 15493 ft | 329 kts | 286° |
| 2026-04-26 19:36 | 18.85478 | -67.36494 | 16283 ft | 332 kts | 286° |
| 2026-04-26 19:37 | 18.86220 | -67.38785 | 16871 ft | 337 kts | 286° |
| 2026-04-26 19:37 | 18.86975 | -67.41137 | 17558 ft | 339 kts | 286° |
| 2026-04-26 19:37 | 18.87731 | -67.43502 | 18260 ft | 342 kts | 286° |
| 2026-04-26 19:37 | 18.88494 | -67.45897 | 18852 ft | 345 kts | 286° |
| 2026-04-26 19:38 | 18.89260 | -67.48302 | 19480 ft | 347 kts | 285° |
| 2026-04-26 19:38 | 18.90033 | -67.50733 | 20104 ft | 350 kts | 285° |
| 2026-04-26 19:38 | 18.90810 | -67.53180 | 20735 ft | 353 kts | 285° |
| 2026-04-26 19:38 | 18.91630 | -67.55638 | 21361 ft | 357 kts | 288° |
| 2026-04-26 19:39 | 18.92659 | -67.58046 | 22001 ft | 363 kts | 294° |
| 2026-04-26 19:39 | 18.94026 | -67.60309 | 22640 ft | 370 kts | 302° |
| 2026-04-26 19:39 | 18.95654 | -67.62450 | 23275 ft | 376 kts | 305° |
| 2026-04-26 19:39 | 18.97334 | -67.64577 | 23845 ft | 378 kts | 303° |
| 2026-04-26 19:40 | 18.98897 | -67.66808 | 24437 ft | 378 kts | 300° |
| 2026-04-26 19:40 | 19.00386 | -67.69099 | 25046 ft | 379 kts | 300° |
| 2026-04-26 19:40 | 19.01941 | -67.71362 | 25633 ft | 383 kts | 302° |
| 2026-04-26 19:40 | 19.03553 | -67.73613 | 26226 ft | 385 kts | 302° |
| 2026-04-26 19:41 | 19.05149 | -67.75898 | 26824 ft | 387 kts | 301° |
| 2026-04-26 19:41 | 19.06726 | -67.78210 | 27415 ft | 389 kts | 301° |
| 2026-04-26 19:41 | 19.08328 | -67.80533 | 27997 ft | 392 kts | 301° |
| 2026-04-26 19:41 | 19.08872 | -67.81314 | 28194 ft | 393 kts | 301° |
| 2026-04-26 19:42 | 19.11580 | -67.85204 | 29153 ft | 397 kts | 301° |
| 2026-04-26 19:42 | 19.13213 | -67.87574 | 29724 ft | 400 kts | 301° |
| 2026-04-26 19:42 | 19.14857 | -67.89954 | 30247 ft | 402 kts | 301° |
| 2026-04-26 19:42 | 19.16515 | -67.92347 | 30708 ft | 405 kts | 301° |
| 2026-04-26 19:43 | 19.18184 | -67.94759 | 31169 ft | 408 kts | 300° |
| 2026-04-26 19:43 | 19.19864 | -67.97193 | 31627 ft | 411 kts | 300° |
| 2026-04-26 19:43 | 19.21559 | -67.99650 | 31978 ft | 418 kts | 300° |
| 2026-04-26 19:43 | 19.23299 | -68.02176 | 31984 ft | 432 kts | 300° |
| 2026-04-26 19:44 | 19.25099 | -68.04785 | 31990 ft | 446 kts | 300° |
| 2026-04-26 19:44 | 19.26962 | -68.07481 | 31989 ft | 461 kts | 301° |
| 2026-04-26 19:44 | 19.28881 | -68.10262 | 31987 ft | 475 kts | 301° |
| 2026-04-26 19:44 | 19.30858 | -68.13133 | 31984 ft | 489 kts | 301° |
| 2026-04-26 19:45 | 19.32860 | -68.16039 | 31990 ft | 503 kts | 301° |
| 2026-04-26 19:45 | 19.34956 | -68.19080 | 31988 ft | 517 kts | 301° |
| 2026-04-26 19:45 | 19.37098 | -68.22191 | 31984 ft | 529 kts | 301° |
| 2026-04-26 19:45 | 19.39280 | -68.25362 | 31987 ft | 534 kts | 301° |
| 2026-04-26 19:46 | 19.43649 | -68.31714 | 31982 ft | 534 kts | 301° |
| 2026-04-26 19:46 | 19.48014 | -68.38075 | 31981 ft | 533 kts | 301° |
| 2026-04-26 19:47 | 19.50928 | -68.42318 | 31987 ft | 533 kts | 301° |
| 2026-04-26 19:47 | 19.55990 | -68.49708 | 31986 ft | 532 kts | 301° |
| 2026-04-26 19:48 | 19.60337 | -68.56056 | 31985 ft | 532 kts | 301° |
| 2026-04-26 19:48 | 19.64679 | -68.62405 | 31985 ft | 531 kts | 301° |
| 2026-04-26 19:49 | 19.69011 | -68.68748 | 31982 ft | 531 kts | 301° |
| 2026-04-26 19:49 | 19.73343 | -68.75094 | 31980 ft | 531 kts | 301° |
| 2026-04-26 19:50 | 19.77672 | -68.81446 | 31983 ft | 530 kts | 301° |
| 2026-04-26 19:50 | 19.81995 | -68.87793 | 31979 ft | 530 kts | 301° |
| 2026-04-26 19:51 | 19.86306 | -68.94131 | 31979 ft | 530 kts | 301° |
| 2026-04-26 19:51 | 19.90419 | -69.00609 | 31982 ft | 527 kts | 297° |
| 2026-04-26 19:52 | 19.94423 | -69.07129 | 31971 ft | 528 kts | 299° |
| 2026-04-26 19:52 | 19.98512 | -69.13605 | 31979 ft | 526 kts | 298° |
| 2026-04-26 19:53 | 20.02499 | -69.20082 | 31984 ft | 527 kts | 299° |
| 2026-04-26 19:53 | 20.06563 | -69.26560 | 31981 ft | 526 kts | 298° |
| 2026-04-26 19:54 | 20.10579 | -69.33071 | 31980 ft | 526 kts | 298° |
| 2026-04-26 19:54 | 20.14624 | -69.39559 | 31985 ft | 525 kts | 298° |
| 2026-04-26 19:55 | 20.18633 | -69.46052 | 31981 ft | 525 kts | 298° |
| 2026-04-26 19:55 | 20.22660 | -69.52541 | 31982 ft | 525 kts | 298° |
| 2026-04-26 19:56 | 20.26667 | -69.59031 | 31983 ft | 524 kts | 298° |
| 2026-04-26 19:56 | 20.30610 | -69.65392 | 31979 ft | 484 kts | 298° |
| 2026-04-26 19:57 | 20.32389 | -69.68267 | 31963 ft | 449 kts | 297° |
| 2026-04-26 19:57 | 20.34072 | -69.71016 | 31969 ft | 441 kts | 297° |
| 2026-04-26 19:57 | 20.37459 | -69.76527 | 31944 ft | 446 kts | 298° |
| 2026-04-26 19:58 | 20.40862 | -69.82058 | 31942 ft | 446 kts | 296° |
| 2026-04-26 19:58 | 20.44177 | -69.87643 | 31952 ft | 447 kts | 298° |
| 2026-04-26 19:59 | 20.47640 | -69.93148 | 31956 ft | 446 kts | 297° |
| 2026-04-26 19:59 | 20.51007 | -69.98706 | 31952 ft | 446 kts | 297° |
| 2026-04-26 20:00 | 20.54425 | -70.04230 | 31953 ft | 446 kts | 297° |
| 2026-04-26 20:00 | 20.57078 | -70.08581 | 31952 ft | 446 kts | 297° |
| 2026-04-26 20:01 | 20.60478 | -70.14118 | 31952 ft | 446 kts | 297° |
| 2026-04-26 20:01 | 20.63865 | -70.19658 | 31952 ft | 446 kts | 297° |
| 2026-04-26 20:02 | 20.65850 | -70.22901 | 31954 ft | 446 kts | 297° |
| 2026-04-26 20:02 | 20.68694 | -70.27554 | 31953 ft | 445 kts | 297° |
| 2026-04-26 20:03 | 20.72646 | -70.34028 | 31953 ft | 445 kts | 297° |
| 2026-04-26 20:03 | 20.76027 | -70.39571 | 31956 ft | 445 kts | 297° |
| 2026-04-26 20:04 | 20.79385 | -70.45080 | 31947 ft | 445 kts | 297° |
| 2026-04-26 20:04 | 20.82778 | -70.50654 | 31951 ft | 444 kts | 297° |
| 2026-04-26 20:05 | 20.86123 | -70.56154 | 31949 ft | 445 kts | 297° |
| 2026-04-26 20:05 | 20.89492 | -70.61700 | 31956 ft | 445 kts | 297° |
| 2026-04-26 20:06 | 20.92860 | -70.67248 | 31955 ft | 444 kts | 297° |
| 2026-04-26 20:06 | 20.96224 | -70.72795 | 31956 ft | 444 kts | 297° |
| 2026-04-26 20:07 | 20.99609 | -70.78383 | 31956 ft | 444 kts | 297° |
| 2026-04-26 20:07 | 21.02969 | -70.83936 | 31952 ft | 444 kts | 297° |
| 2026-04-26 20:08 | 21.06328 | -70.89490 | 31959 ft | 444 kts | 297° |
| 2026-04-26 20:08 | 21.09662 | -70.95011 | 31950 ft | 445 kts | 297° |
| 2026-04-26 20:09 | 21.13039 | -71.00607 | 31952 ft | 444 kts | 297° |
| 2026-04-26 20:09 | 21.16372 | -71.06137 | 31958 ft | 444 kts | 297° |
| 2026-04-26 20:10 | 21.19724 | -71.11703 | 31951 ft | 444 kts | 297° |
| 2026-04-26 20:10 | 21.23076 | -71.17274 | 31949 ft | 445 kts | 297° |
| 2026-04-26 20:11 | 21.26423 | -71.22843 | 31956 ft | 444 kts | 297° |
| 2026-04-26 20:12 | 21.31437 | -71.31196 | 31952 ft | 444 kts | 297° |
| 2026-04-26 20:12 | 21.34780 | -71.36774 | 31952 ft | 444 kts | 297° |
| 2026-04-26 20:13 | 21.38117 | -71.42345 | 31956 ft | 444 kts | 297° |
| 2026-04-26 20:13 | 21.41450 | -71.47915 | 31957 ft | 443 kts | 297° |
| 2026-04-26 20:14 | 21.44779 | -71.53486 | 31955 ft | 443 kts | 297° |
| 2026-04-26 20:14 | 21.48103 | -71.59053 | 31957 ft | 443 kts | 297° |
| 2026-04-26 20:15 | 21.51426 | -71.64624 | 31956 ft | 443 kts | 297° |
| 2026-04-26 20:15 | 21.54743 | -71.70191 | 31957 ft | 443 kts | 297° |
| 2026-04-26 20:16 | 21.58060 | -71.75764 | 31959 ft | 443 kts | 297° |
| 2026-04-26 20:16 | 21.61378 | -71.81342 | 31957 ft | 443 kts | 297° |
| 2026-04-26 20:17 | 21.64669 | -71.86883 | 31958 ft | 442 kts | 297° |
| 2026-04-26 20:17 | 21.67982 | -71.92464 | 31956 ft | 443 kts | 297° |
| 2026-04-26 20:18 | 21.71290 | -71.98044 | 31948 ft | 442 kts | 297° |
| 2026-04-26 20:18 | 21.74596 | -72.03627 | 31951 ft | 442 kts | 297° |
| 2026-04-26 20:19 | 21.77897 | -72.09207 | 31950 ft | 442 kts | 297° |
| 2026-04-26 20:19 | 21.81199 | -72.14792 | 31947 ft | 442 kts | 297° |
| 2026-04-26 20:20 | 21.84498 | -72.20379 | 31949 ft | 442 kts | 297° |
| 2026-04-26 20:20 | 21.87789 | -72.25960 | 31952 ft | 442 kts | 297° |
| 2026-04-26 20:21 | 21.91082 | -72.31549 | 31947 ft | 441 kts | 297° |
| 2026-04-26 20:21 | 21.94369 | -72.37133 | 31949 ft | 441 kts | 297° |
| 2026-04-26 20:22 | 21.97602 | -72.42632 | 31951 ft | 441 kts | 297° |
| 2026-04-26 20:22 | 22.00885 | -72.48221 | 31955 ft | 441 kts | 297° |
| 2026-04-26 20:23 | 22.04159 | -72.53801 | 31957 ft | 441 kts | 297° |
| 2026-04-26 20:23 | 22.07438 | -72.59394 | 31955 ft | 441 kts | 297° |
| 2026-04-26 20:24 | 22.10704 | -72.64972 | 31954 ft | 440 kts | 297° |
| 2026-04-26 20:24 | 22.13973 | -72.70560 | 31954 ft | 440 kts | 297° |
| 2026-04-26 20:25 | 22.17214 | -72.76108 | 31955 ft | 440 kts | 297° |
| 2026-04-26 20:25 | 22.20470 | -72.81685 | 31953 ft | 440 kts | 297° |
| 2026-04-26 20:26 | 22.23731 | -72.87278 | 31956 ft | 440 kts | 297° |
| 2026-04-26 20:26 | 22.26986 | -72.92866 | 31953 ft | 439 kts | 297° |
| 2026-04-26 20:27 | 22.30237 | -72.98453 | 31957 ft | 439 kts | 297° |
| 2026-04-26 20:27 | 22.33484 | -73.04039 | 31956 ft | 439 kts | 297° |
| 2026-04-26 20:28 | 22.36730 | -73.09633 | 31955 ft | 439 kts | 297° |
| 2026-04-26 20:28 | 22.39969 | -73.15223 | 31956 ft | 439 kts | 297° |
| 2026-04-26 20:29 | 22.43209 | -73.20818 | 31953 ft | 439 kts | 297° |
| 2026-04-26 20:29 | 22.46447 | -73.26415 | 31956 ft | 439 kts | 297° |
| 2026-04-26 20:30 | 22.49684 | -73.32018 | 31958 ft | 439 kts | 297° |
| 2026-04-26 20:30 | 22.52918 | -73.37622 | 31957 ft | 439 kts | 297° |
| 2026-04-26 20:31 | 22.56148 | -73.43224 | 31955 ft | 439 kts | 297° |
| 2026-04-26 20:31 | 22.59379 | -73.48835 | 31956 ft | 439 kts | 297° |
| 2026-04-26 20:32 | 22.62605 | -73.54442 | 31955 ft | 439 kts | 297° |
| 2026-04-26 20:32 | 22.65831 | -73.60056 | 31955 ft | 439 kts | 297° |
| 2026-04-26 20:33 | 22.69032 | -73.65631 | 31959 ft | 439 kts | 297° |
| 2026-04-26 20:33 | 22.71728 | -73.70333 | 31958 ft | 439 kts | 297° |
| 2026-04-26 20:34 | 22.75472 | -73.76868 | 31956 ft | 439 kts | 297° |
| 2026-04-26 20:34 | 22.78166 | -73.81576 | 31961 ft | 439 kts | 297° |
| 2026-04-26 20:35 | 22.81360 | -73.87162 | 31958 ft | 439 kts | 297° |
| 2026-04-26 20:35 | 22.84574 | -73.92791 | 31958 ft | 439 kts | 297° |
| 2026-04-26 20:36 | 22.87786 | -73.98422 | 31962 ft | 439 kts | 297° |
| 2026-04-26 20:36 | 22.90994 | -74.04051 | 31957 ft | 439 kts | 297° |
| 2026-04-26 20:37 | 22.93612 | -74.08648 | 31957 ft | 439 kts | 297° |
| 2026-04-26 20:37 | 22.96815 | -74.14283 | 31958 ft | 439 kts | 297° |
| 2026-04-26 20:38 | 23.00022 | -74.19927 | 31961 ft | 439 kts | 297° |
| 2026-04-26 20:38 | 23.03225 | -74.25571 | 31957 ft | 439 kts | 297° |
| 2026-04-26 20:39 | 23.06421 | -74.31210 | 31960 ft | 439 kts | 297° |
| 2026-04-26 20:39 | 23.09617 | -74.36855 | 31960 ft | 439 kts | 297° |
| 2026-04-26 20:40 | 23.12816 | -74.42510 | 31960 ft | 439 kts | 297° |
| 2026-04-26 20:40 | 23.16011 | -74.48166 | 31958 ft | 439 kts | 298° |
| 2026-04-26 20:41 | 23.19203 | -74.53822 | 31951 ft | 439 kts | 298° |
| 2026-04-26 20:41 | 23.22397 | -74.59489 | 31954 ft | 440 kts | 298° |
| 2026-04-26 20:42 | 23.25591 | -74.65161 | 31960 ft | 440 kts | 298° |
| 2026-04-26 20:42 | 23.28784 | -74.70837 | 31955 ft | 440 kts | 298° |
| 2026-04-26 20:43 | 23.31977 | -74.76522 | 31955 ft | 441 kts | 298° |
| 2026-04-26 20:43 | 23.35175 | -74.82220 | 31955 ft | 441 kts | 298° |
| 2026-04-26 20:44 | 23.38369 | -74.87918 | 31965 ft | 441 kts | 298° |
| 2026-04-26 20:44 | 23.40876 | -74.93962 | 31968 ft | 438 kts | 286° |
| 2026-04-26 20:45 | 23.42535 | -75.00332 | 31964 ft | 438 kts | 286° |
| 2026-04-26 20:45 | 23.44571 | -75.06601 | 31963 ft | 439 kts | 288° |
| 2026-04-26 20:46 | 23.46433 | -75.12938 | 31966 ft | 439 kts | 287° |
| 2026-04-26 20:46 | 23.48385 | -75.19249 | 31957 ft | 440 kts | 288° |
| 2026-04-26 20:47 | 23.50292 | -75.25591 | 31962 ft | 441 kts | 287° |
| 2026-04-26 20:47 | 23.52222 | -75.31938 | 31961 ft | 441 kts | 288° |
| 2026-04-26 20:48 | 23.54141 | -75.38296 | 31955 ft | 442 kts | 287° |
| 2026-04-26 20:48 | 23.56063 | -75.44661 | 31957 ft | 443 kts | 288° |
| 2026-04-26 20:49 | 23.57985 | -75.51037 | 31964 ft | 443 kts | 288° |
| 2026-04-26 20:49 | 23.59893 | -75.57377 | 31963 ft | 443 kts | 288° |
| 2026-04-26 20:50 | 23.61824 | -75.63809 | 31965 ft | 444 kts | 288° |
| 2026-04-26 20:50 | 23.63733 | -75.70173 | 31952 ft | 444 kts | 288° |
| 2026-04-26 20:51 | 23.65666 | -75.76628 | 31959 ft | 445 kts | 288° |
| 2026-04-26 20:51 | 23.67582 | -75.83042 | 31965 ft | 445 kts | 288° |
| 2026-04-26 20:52 | 23.69485 | -75.89417 | 31961 ft | 445 kts | 288° |
| 2026-04-26 20:52 | 23.71401 | -75.95851 | 31960 ft | 446 kts | 288° |
| 2026-04-26 20:53 | 23.73326 | -76.02323 | 31966 ft | 446 kts | 288° |
| 2026-04-26 20:53 | 23.75226 | -76.08723 | 31968 ft | 446 kts | 288° |
| 2026-04-26 20:54 | 23.77135 | -76.15164 | 31958 ft | 446 kts | 288° |
| 2026-04-26 20:54 | 23.79044 | -76.21616 | 31971 ft | 446 kts | 288° |
| 2026-04-26 20:55 | 23.80948 | -76.28064 | 31962 ft | 447 kts | 288° |
| 2026-04-26 20:55 | 23.82855 | -76.34531 | 31962 ft | 447 kts | 288° |
| 2026-04-26 20:56 | 23.84762 | -76.41007 | 31962 ft | 448 kts | 288° |
| 2026-04-26 20:56 | 23.86666 | -76.47487 | 31957 ft | 449 kts | 288° |
| 2026-04-26 20:57 | 23.88572 | -76.53985 | 31962 ft | 450 kts | 288° |
| 2026-04-26 20:57 | 23.90480 | -76.60499 | 31959 ft | 450 kts | 288° |
| 2026-04-26 20:58 | 23.92388 | -76.67025 | 31955 ft | 451 kts | 288° |
| 2026-04-26 20:58 | 23.94293 | -76.73552 | 31966 ft | 451 kts | 288° |
| 2026-04-26 20:59 | 23.96201 | -76.80101 | 31961 ft | 452 kts | 288° |
| 2026-04-26 20:59 | 23.98107 | -76.86658 | 31961 ft | 453 kts | 288° |
| 2026-04-26 21:00 | 24.00013 | -76.93223 | 31950 ft | 453 kts | 288° |
| 2026-04-26 21:00 | 24.01922 | -76.99809 | 31955 ft | 454 kts | 288° |
| 2026-04-26 21:01 | 24.03817 | -77.06359 | 31953 ft | 455 kts | 288° |
| 2026-04-26 21:01 | 24.05735 | -77.13003 | 31963 ft | 456 kts | 288° |
| 2026-04-26 21:02 | 24.07641 | -77.19615 | 31956 ft | 456 kts | 288° |
| 2026-04-26 21:02 | 24.09546 | -77.26234 | 31959 ft | 456 kts | 288° |
| 2026-04-26 21:03 | 24.11451 | -77.32868 | 31953 ft | 457 kts | 288° |
| 2026-04-26 21:03 | 24.13353 | -77.39501 | 31955 ft | 457 kts | 288° |
| 2026-04-26 21:04 | 24.15256 | -77.46152 | 31961 ft | 458 kts | 288° |
| 2026-04-26 21:04 | 24.17145 | -77.52763 | 31960 ft | 458 kts | 288° |
| 2026-04-26 21:05 | 24.19044 | -77.59425 | 31959 ft | 458 kts | 288° |
| 2026-04-26 21:05 | 24.20943 | -77.66097 | 31959 ft | 459 kts | 288° |
| 2026-04-26 21:06 | 24.22839 | -77.72771 | 31967 ft | 459 kts | 288° |
| 2026-04-26 21:06 | 24.24735 | -77.79454 | 31949 ft | 460 kts | 288° |
| 2026-04-26 21:07 | 24.26656 | -77.86136 | 31947 ft | 460 kts | 290° |
| 2026-04-26 21:07 | 24.29623 | -77.92323 | 31964 ft | 460 kts | 304° |
| 2026-04-26 21:08 | 24.33519 | -77.97905 | 31952 ft | 461 kts | 307° |
| 2026-04-26 21:08 | 24.37069 | -78.03758 | 31965 ft | 461 kts | 301° |
| 2026-04-26 21:09 | 24.40647 | -78.09600 | 31969 ft | 462 kts | 305° |
| 2026-04-26 21:09 | 24.44243 | -78.15433 | 31955 ft | 462 kts | 302° |
| 2026-04-26 21:10 | 24.47811 | -78.21294 | 31962 ft | 462 kts | 304° |
| 2026-04-26 21:10 | 24.51408 | -78.27149 | 31953 ft | 462 kts | 303° |
| 2026-04-26 21:11 | 24.54987 | -78.33028 | 31969 ft | 463 kts | 303° |
| 2026-04-26 21:11 | 24.58572 | -78.38891 | 31959 ft | 463 kts | 303° |
| 2026-04-26 21:12 | 24.62151 | -78.44772 | 31958 ft | 463 kts | 303° |
| 2026-04-26 21:12 | 24.65744 | -78.50672 | 31962 ft | 464 kts | 303° |
| 2026-04-26 21:13 | 24.69324 | -78.56563 | 31962 ft | 464 kts | 303° |
| 2026-04-26 21:13 | 24.72920 | -78.62485 | 31963 ft | 465 kts | 303° |
| 2026-04-26 21:14 | 24.76485 | -78.68364 | 31965 ft | 465 kts | 303° |
| 2026-04-26 21:14 | 24.80071 | -78.74285 | 31960 ft | 465 kts | 303° |
| 2026-04-26 21:15 | 24.83657 | -78.80213 | 31959 ft | 465 kts | 303° |
| 2026-04-26 21:15 | 24.87233 | -78.86133 | 31963 ft | 465 kts | 303° |
| 2026-04-26 21:16 | 24.90812 | -78.92064 | 31951 ft | 464 kts | 303° |
| 2026-04-26 21:16 | 24.94392 | -78.98004 | 31376 ft | 464 kts | 303° |
| 2026-04-26 21:16 | 24.96165 | -79.00949 | 30769 ft | 459 kts | 303° |
| 2026-04-26 21:17 | 24.97903 | -79.03836 | 30176 ft | 442 kts | 303° |
| 2026-04-26 21:17 | 24.99566 | -79.06603 | 29544 ft | 426 kts | 303° |
| 2026-04-26 21:17 | 25.01188 | -79.09302 | 28990 ft | 418 kts | 303° |
| 2026-04-26 21:17 | 25.02783 | -79.11958 | 28450 ft | 414 kts | 303° |
| 2026-04-26 21:18 | 25.03831 | -79.13704 | 28087 ft | 411 kts | 303° |
| 2026-04-26 21:18 | 25.05422 | -79.16354 | 27542 ft | 407 kts | 303° |
| 2026-04-26 21:18 | 25.06952 | -79.18906 | 27023 ft | 403 kts | 303° |
| 2026-04-26 21:18 | 25.08491 | -79.21474 | 26495 ft | 399 kts | 303° |
| 2026-04-26 21:19 | 25.10014 | -79.24014 | 25969 ft | 396 kts | 303° |
| 2026-04-26 21:19 | 25.11525 | -79.26538 | 25456 ft | 392 kts | 303° |
| 2026-04-26 21:19 | 25.13019 | -79.29035 | 24932 ft | 389 kts | 303° |
| 2026-04-26 21:19 | 25.14506 | -79.31522 | 24432 ft | 386 kts | 303° |
| 2026-04-26 21:20 | 25.15977 | -79.33980 | 23925 ft | 383 kts | 303° |
| 2026-04-26 21:20 | 25.17434 | -79.36418 | 23395 ft | 380 kts | 303° |
| 2026-04-26 21:20 | 25.18883 | -79.38845 | 22872 ft | 376 kts | 303° |
| 2026-04-26 21:20 | 25.20316 | -79.41246 | 22384 ft | 374 kts | 303° |
| 2026-04-26 21:21 | 25.21743 | -79.43638 | 21913 ft | 371 kts | 303° |
| 2026-04-26 21:21 | 25.23156 | -79.46006 | 21446 ft | 369 kts | 303° |
| 2026-04-26 21:21 | 25.24565 | -79.48370 | 20962 ft | 367 kts | 303° |
| 2026-04-26 21:21 | 25.25964 | -79.50720 | 20474 ft | 364 kts | 303° |
| 2026-04-26 21:22 | 25.27355 | -79.53056 | 20014 ft | 362 kts | 303° |
| 2026-04-26 21:22 | 25.28733 | -79.55371 | 19529 ft | 360 kts | 303° |
| 2026-04-26 21:22 | 25.30105 | -79.57678 | 19057 ft | 358 kts | 303° |
| 2026-04-26 21:23 | 25.32822 | -79.62248 | 18093 ft | 354 kts | 303° |
| 2026-04-26 21:23 | 25.34167 | -79.64512 | 17607 ft | 350 kts | 303° |
| 2026-04-26 21:23 | 25.35498 | -79.66753 | 17148 ft | 348 kts | 303° |
| 2026-04-26 21:23 | 25.36824 | -79.68988 | 16686 ft | 346 kts | 303° |
| 2026-04-26 21:24 | 25.38133 | -79.71196 | 16233 ft | 343 kts | 303° |
| 2026-04-26 21:24 | 25.39453 | -79.73396 | 15868 ft | 341 kts | 304° |
| 2026-04-26 21:24 | 25.40823 | -79.75522 | 15567 ft | 340 kts | 306° |
| 2026-04-26 21:24 | 25.42215 | -79.77622 | 15284 ft | 338 kts | 306° |
| 2026-04-26 21:25 | 25.43557 | -79.79713 | 14988 ft | 337 kts | 305° |
| 2026-04-26 21:25 | 25.44912 | -79.81852 | 14699 ft | 335 kts | 305° |
| 2026-04-26 21:25 | 25.46259 | -79.83951 | 14408 ft | 333 kts | 305° |
| 2026-04-26 21:25 | 25.47603 | -79.86037 | 14119 ft | 332 kts | 305° |
| 2026-04-26 21:26 | 25.48935 | -79.88116 | 13766 ft | 331 kts | 305° |
| 2026-04-26 21:26 | 25.50259 | -79.90186 | 13368 ft | 328 kts | 305° |
| 2026-04-26 21:26 | 25.51574 | -79.92240 | 12978 ft | 325 kts | 305° |
| 2026-04-26 21:26 | 25.52880 | -79.94280 | 12603 ft | 324 kts | 305° |
| 2026-04-26 21:27 | 25.54183 | -79.96317 | 12229 ft | 323 kts | 305° |
| 2026-04-26 21:27 | 25.55462 | -79.98315 | 11873 ft | 321 kts | 305° |
| 2026-04-26 21:27 | 25.56736 | -80.00308 | 11496 ft | 301 kts | 305° |
| 2026-04-26 21:27 | 25.57911 | -80.02141 | 11157 ft | 287 kts | 305° |
| 2026-04-26 21:28 | 25.58947 | -80.04011 | 10769 ft | 285 kts | 296° |
| 2026-04-26 21:28 | 25.59610 | -80.06034 | 10309 ft | 284 kts | 285° |
| 2026-04-26 21:28 | 25.60056 | -80.08165 | 9845 ft | 283 kts | 283° |
| 2026-04-26 21:28 | 25.60460 | -80.10290 | 9469 ft | 281 kts | 283° |
| 2026-04-26 21:29 | 25.60867 | -80.12421 | 9110 ft | 279 kts | 282° |
| 2026-04-26 21:29 | 25.61265 | -80.14498 | 8770 ft | 278 kts | 282° |
| 2026-04-26 21:29 | 25.61671 | -80.16618 | 8410 ft | 277 kts | 282° |
| 2026-04-26 21:29 | 25.62065 | -80.18677 | 8073 ft | 276 kts | 283° |
| 2026-04-26 21:30 | 25.62468 | -80.20759 | 7752 ft | 277 kts | 283° |
| 2026-04-26 21:30 | 25.62884 | -80.22841 | 7402 ft | 277 kts | 283° |
| 2026-04-26 21:30 | 25.63298 | -80.24913 | 7061 ft | 277 kts | 284° |
| 2026-04-26 21:30 | 25.63717 | -80.27004 | 6690 ft | 278 kts | 282° |
| 2026-04-26 21:31 | 25.64128 | -80.29082 | 6321 ft | 275 kts | 282° |
| 2026-04-26 21:31 | 25.64528 | -80.31148 | 5945 ft | 272 kts | 282° |
| 2026-04-26 21:31 | 25.64945 | -80.33177 | 5569 ft | 270 kts | 283° |
| 2026-04-26 21:31 | 25.65358 | -80.35181 | 5158 ft | 260 kts | 282° |
| 2026-04-26 21:32 | 25.65760 | -80.37075 | 4782 ft | 246 kts | 283° |
| 2026-04-26 21:32 | 25.66151 | -80.38878 | 4402 ft | 237 kts | 283° |
| 2026-04-26 21:32 | 25.66534 | -80.40635 | 4015 ft | 232 kts | 282° |
| 2026-04-26 21:32 | 25.66912 | -80.42331 | 3651 ft | 220 kts | 282° |
| 2026-04-26 21:33 | 25.67281 | -80.43935 | 3284 ft | 210 kts | 283° |
| 2026-04-26 21:33 | 25.67634 | -80.45478 | 2921 ft | 203 kts | 283° |
| 2026-04-26 21:33 | 25.67960 | -80.46880 | 2981 ft | 180 kts | 282° |
| 2026-04-26 21:33 | 25.68286 | -80.48199 | 2990 ft | 177 kts | 283° |
| 2026-04-26 21:34 | 25.68610 | -80.49511 | 2993 ft | 175 kts | 283° |
| 2026-04-26 21:34 | 25.68922 | -80.50833 | 3013 ft | 177 kts | 283° |
| 2026-04-26 21:34 | 25.69238 | -80.52146 | 3011 ft | 174 kts | 283° |
| 2026-04-26 21:34 | 25.69558 | -80.53446 | 3003 ft | 176 kts | 284° |
| 2026-04-26 21:35 | 25.70015 | -80.54709 | 3006 ft | 179 kts | 299° |
| 2026-04-26 21:35 | 25.70838 | -80.55755 | 3006 ft | 181 kts | 318° |
| 2026-04-26 21:35 | 25.71956 | -80.56442 | 3022 ft | 187 kts | 337° |
| 2026-04-26 21:35 | 25.73238 | -80.56702 | 3006 ft | 192 kts | 354° |
| 2026-04-26 21:36 | 25.74554 | -80.56789 | 3007 ft | 188 kts | 352° |
| 2026-04-26 21:36 | 25.75434 | -80.56787 | 3021 ft | 192 kts | 2° |
| 2026-04-26 21:36 | 25.77130 | -80.56184 | 2993 ft | 193 kts | 29° |
| 2026-04-26 21:36 | 25.78164 | -80.55224 | 2989 ft | 194 kts | 47° |
| 2026-04-26 21:37 | 25.78883 | -80.53953 | 2987 ft | 190 kts | 67° |
| 2026-04-26 21:37 | 25.79204 | -80.52488 | 2996 ft | 196 kts | 86° |
| 2026-04-26 21:37 | 25.79187 | -80.50982 | 2982 ft | 192 kts | 88° |
| 2026-04-26 21:37 | 25.79404 | -80.49497 | 2989 ft | 198 kts | 79° |
| 2026-04-26 21:38 | 25.79575 | -80.47977 | 3013 ft | 200 kts | 86° |
| 2026-04-26 21:38 | 25.79620 | -80.46473 | 2845 ft | 189 kts | 88° |
| 2026-04-26 21:38 | 25.79674 | -80.45046 | 2603 ft | 187 kts | 89° |
| 2026-04-26 21:38 | 25.79731 | -80.43579 | 2377 ft | 193 kts | 89° |
| 2026-04-26 21:39 | 25.79784 | -80.42130 | 2098 ft | 176 kts | 90° |
| 2026-04-26 21:39 | 25.79833 | -80.40872 | 1880 ft | 155 kts | 89° |
| 2026-04-26 21:39 | 25.79889 | -80.39684 | 1691 ft | 150 kts | 90° |
| 2026-04-26 21:39 | 25.79942 | -80.38506 | 1496 ft | 152 kts | 89° |
| 2026-04-26 21:40 | 25.79993 | -80.37371 | 1299 ft | 147 kts | 91° |
| 2026-04-26 21:40 | 25.80033 | -80.36226 | 1109 ft | 148 kts | 89° |
| 2026-04-26 21:40 | 25.80086 | -80.35087 | 917 ft | 148 kts | 91° |
| 2026-04-26 21:40 | 25.80132 | -80.33967 | 744 ft | 141 kts | 90° |
| 2026-04-26 21:41 | 25.80174 | -80.32853 | 537 ft | 148 kts | 89° |
| 2026-04-26 21:41 | 25.80232 | -80.31745 | 368 ft | 142 kts | 86° |
| 2026-04-26 21:41 | 25.80273 | -80.30668 | 168 ft | 139 kts | 88° |
| 2026-04-26 21:41 | 25.80309 | -80.29647 | 21 ft | 123 kts | 87° |
| 2026-04-26 21:42 | 25.80342 | -80.28850 | 22 ft | 81 kts | 87° |
| 2026-04-26 21:42 | 25.80362 | -80.28425 | 21 ft | 34 kts | 87° |
| 2026-04-26 21:42 | 25.80372 | -80.28250 | 22 ft | 19 kts | 85° |
| 2026-04-26 21:42 | 25.80395 | -80.28090 | 22 ft | 21 kts | 70° |
| 2026-04-26 21:43 | 25.80453 | -80.27996 | 22 ft | 9 kts | 43° |
| 2026-04-26 21:43 | 25.80484 | -80.27954 | 25 ft | 4 kts | 65° |
| 2026-04-26 21:43 | 25.80491 | -80.27931 | 23 ft | 2 kts | 79° |
| 2026-04-26 21:43 | 25.80496 | -80.27885 | 23 ft | 6 kts | 86° |
| 2026-04-26 21:44 | 25.80497 | -80.27846 | 24 ft | 4 kts | 88° |
| 2026-04-26 21:44 | 25.80498 | -80.27813 | 24 ft | 7 kts | 88° |
| 2026-04-26 21:44 | 25.80501 | -80.27736 | 24 ft | 12 kts | 88° |
| 2026-04-26 21:44 | 25.80503 | -80.27633 | 22 ft | 15 kts | 88° |
| 2026-04-26 21:45 | 25.80507 | -80.27517 | 20 ft | 15 kts | 88° |
| 2026-04-26 21:45 | 25.80512 | -80.27403 | 21 ft | 14 kts | 87° |
| 2026-04-26 21:45 | 25.80515 | -80.27295 | 20 ft | 13 kts | 89° |
| 2026-04-26 21:45 | 25.80515 | -80.27173 | 20 ft | 21 kts | 89° |
| 2026-04-26 21:46 | 25.80562 | -80.27054 | 19 ft | 16 kts | 7° |
| 2026-04-26 21:46 | 25.80610 | -80.27053 | 20 ft | 0 kts | 358° |